createdAt,value
2018-05-15T00:00:00.262Z,100.0
2018-05-15T00:01:01.661Z,100.0
2018-05-15T00:02:03.051Z,100.0
2018-05-15T00:03:04.446Z,100.0
2018-05-15T00:04:05.840Z,100.0
2018-05-15T00:05:07.239Z,100.0
2018-05-15T00:06:08.631Z,100.0
2018-05-15T00:07:10.023Z,100.0
2018-05-15T00:08:11.422Z,100.0
2018-05-15T00:09:12.828Z,100.0
2018-05-15T00:10:14.223Z,100.0
2018-05-15T00:11:15.621Z,100.0
2018-05-15T00:12:17.023Z,100.0
2018-05-15T00:13:18.417Z,100.0
2018-05-15T00:14:19.809Z,100.0
2018-05-15T00:15:21.213Z,100.0
2018-05-15T00:16:22.601Z,100.0
2018-05-15T00:17:23.995Z,100.0
2018-05-15T00:18:25.388Z,100.0
2018-05-15T00:19:26.786Z,100.0
2018-05-15T00:20:28.181Z,100.0
2018-05-15T00:21:29.574Z,100.0
2018-05-15T00:22:30.970Z,100.0
2018-05-15T00:23:32.386Z,100.0
2018-05-15T00:24:33.779Z,100.0
2018-05-15T00:25:35.175Z,100.0
2018-05-15T00:26:36.583Z,100.0
2018-05-15T00:27:37.958Z,100.0
2018-05-15T00:28:39.352Z,100.0
2018-05-15T00:29:40.765Z,100.0
2018-05-15T00:30:42.156Z,100.0
2018-05-15T00:31:43.555Z,100.0
2018-05-15T00:32:44.951Z,100.0
2018-05-15T00:33:46.356Z,100.0
2018-05-15T00:34:47.742Z,100.0
2018-05-15T00:35:49.139Z,100.0
2018-05-15T00:36:50.534Z,100.0
2018-05-15T00:37:51.928Z,100.0
2018-05-15T00:38:53.323Z,100.0
2018-05-15T00:39:54.718Z,100.0
2018-05-15T00:40:56.113Z,100.0
2018-05-15T00:41:57.500Z,100.0
2018-05-15T00:42:58.892Z,100.0
2018-05-15T00:44:00.291Z,100.0
2018-05-15T00:45:01.690Z,100.0
2018-05-15T00:46:03.082Z,100.0
2018-05-15T00:47:04.492Z,100.0
2018-05-15T00:48:05.883Z,100.0
2018-05-15T00:49:07.279Z,100.0
2018-05-15T00:50:08.668Z,100.0
2018-05-15T00:51:10.062Z,100.0
2018-05-15T00:52:11.458Z,100.0
2018-05-15T00:53:12.849Z,100.0
2018-05-15T00:54:14.243Z,100.0
2018-05-15T00:55:15.639Z,100.0
2018-05-15T00:56:17.035Z,100.0
2018-05-15T00:57:18.424Z,100.0
2018-05-15T00:58:19.821Z,100.0
2018-05-15T00:59:21.211Z,100.0
2018-05-15T01:00:22.612Z,100.0
2018-05-15T01:01:24.005Z,100.0
2018-05-15T01:02:25.401Z,100.0
2018-05-15T01:03:26.793Z,100.0
2018-05-15T01:04:28.192Z,100.0
2018-05-15T01:05:29.584Z,100.0
2018-05-15T01:06:30.977Z,100.0
2018-05-15T01:07:32.372Z,100.0
2018-05-15T01:08:33.766Z,100.0
2018-05-15T01:09:35.168Z,100.0
2018-05-15T01:10:36.557Z,100.0
2018-05-15T01:11:37.946Z,100.0
2018-05-15T01:12:39.341Z,100.0
2018-05-15T01:13:40.733Z,100.0
2018-05-15T01:14:42.128Z,100.0
2018-05-15T01:15:43.523Z,100.0
2018-05-15T01:16:44.918Z,100.0
2018-05-15T01:17:46.387Z,100.0
2018-05-15T01:18:47.808Z,100.0
2018-05-15T01:19:49.201Z,100.0
2018-05-15T01:20:50.596Z,100.0
2018-05-15T01:21:51.995Z,100.0
2018-05-15T01:22:53.393Z,100.0
2018-05-15T01:23:54.785Z,100.0
2018-05-15T01:24:56.182Z,100.0
2018-05-15T01:25:57.570Z,100.0
2018-05-15T01:26:58.967Z,100.0
2018-05-15T01:28:00.364Z,100.0
2018-05-15T01:29:01.763Z,100.0
2018-05-15T01:30:03.154Z,100.0
2018-05-15T01:31:04.546Z,100.0
2018-05-15T01:32:05.942Z,100.0
2018-05-15T01:33:07.333Z,100.0
2018-05-15T01:34:08.726Z,100.0
2018-05-15T01:35:10.114Z,100.0
2018-05-15T01:36:11.513Z,100.0
2018-05-15T01:37:12.911Z,100.0
2018-05-15T01:38:14.303Z,100.0
2018-05-15T01:39:15.703Z,100.0
2018-05-15T01:40:17.095Z,100.0
2018-05-15T01:41:18.486Z,100.0
2018-05-15T01:42:19.880Z,100.0
2018-05-15T01:43:21.276Z,100.0
2018-05-15T01:44:22.668Z,100.0
2018-05-15T01:45:24.064Z,100.0
2018-05-15T01:46:25.454Z,100.0
2018-05-15T01:47:26.853Z,100.0
2018-05-15T01:48:28.230Z,100.0
2018-05-15T01:49:29.622Z,100.0
2018-05-15T01:50:31.014Z,100.0
2018-05-15T01:51:32.412Z,100.0
2018-05-15T01:52:33.806Z,100.0
2018-05-15T01:53:35.211Z,100.0
2018-05-15T01:54:36.593Z,100.0
2018-05-15T01:55:37.984Z,100.0
2018-05-15T01:56:39.379Z,100.0
2018-05-15T01:57:40.777Z,100.0
2018-05-15T01:58:42.176Z,100.0
2018-05-15T01:59:43.563Z,100.0
2018-05-15T02:00:44.964Z,100.0
2018-05-15T02:01:46.358Z,100.0
2018-05-15T02:02:47.769Z,100.0
2018-05-15T02:03:49.166Z,100.0
2018-05-15T02:04:50.556Z,100.0
2018-05-15T02:05:52.035Z,100.0
2018-05-15T02:06:53.447Z,100.0
2018-05-15T02:07:54.842Z,100.0
2018-05-15T02:08:56.232Z,100.0
2018-05-15T02:09:57.637Z,100.0
2018-05-15T02:10:59.030Z,100.0
2018-05-15T02:12:00.422Z,100.0
2018-05-15T02:13:01.819Z,100.0
2018-05-15T02:14:03.212Z,100.0
2018-05-15T02:15:04.604Z,100.0
2018-05-15T02:16:06.001Z,100.0
2018-05-15T02:17:07.386Z,100.0
2018-05-15T02:18:08.778Z,100.0
2018-05-15T02:19:10.171Z,100.0
2018-05-15T02:20:11.567Z,100.0
2018-05-15T02:21:12.960Z,100.0
2018-05-15T02:22:14.354Z,100.0
2018-05-15T02:23:15.743Z,100.0
2018-05-15T02:24:17.144Z,100.0
2018-05-15T02:25:18.536Z,100.0
2018-05-15T02:26:19.932Z,100.0
2018-05-15T02:27:21.326Z,100.0
2018-05-15T02:28:22.726Z,100.0
2018-05-15T02:29:24.118Z,100.0
2018-05-15T02:30:25.585Z,100.0
2018-05-15T02:31:26.913Z,100.0
2018-05-15T02:32:28.307Z,100.0
2018-05-15T02:33:29.704Z,100.0
2018-05-15T02:34:31.097Z,100.0
2018-05-15T02:35:32.487Z,100.0
2018-05-15T02:36:33.885Z,100.0
2018-05-15T02:37:35.278Z,100.0
2018-05-15T02:38:36.670Z,100.0
2018-05-15T02:39:38.063Z,100.0
2018-05-15T02:40:39.456Z,100.0
2018-05-15T02:41:40.929Z,100.0
2018-05-15T02:42:42.242Z,100.0
2018-05-15T02:43:43.631Z,100.0
2018-05-15T02:44:45.023Z,100.0
2018-05-15T02:45:46.415Z,100.0
2018-05-15T02:46:47.819Z,100.0
2018-05-15T02:47:49.202Z,100.0
2018-05-15T02:48:50.599Z,100.0
2018-05-15T02:49:51.993Z,100.0
2018-05-15T02:50:53.386Z,100.0
2018-05-15T02:51:54.775Z,100.0
2018-05-15T02:52:56.169Z,100.0
2018-05-15T02:53:57.619Z,100.0
2018-05-15T02:54:59.013Z,100.0
2018-05-15T02:56:00.422Z,100.0
2018-05-15T02:57:01.825Z,100.0
2018-05-15T02:58:03.219Z,100.0
2018-05-15T02:59:04.607Z,100.0
2018-05-15T03:00:06.001Z,100.0
2018-05-15T03:01:07.465Z,100.0
2018-05-15T03:02:08.801Z,100.0
2018-05-15T03:03:10.188Z,100.0
2018-05-15T03:04:11.584Z,100.0
2018-05-15T03:05:12.982Z,100.0
2018-05-15T03:06:14.369Z,100.0
2018-05-15T03:07:15.768Z,100.0
2018-05-15T03:08:17.157Z,100.0
2018-05-15T03:09:18.548Z,100.0
2018-05-15T03:10:19.938Z,100.0
2018-05-15T03:11:21.334Z,100.0
2018-05-15T03:12:22.729Z,100.0
2018-05-15T03:13:24.118Z,100.0
2018-05-15T03:14:25.510Z,100.0
2018-05-15T03:15:26.902Z,100.0
2018-05-15T03:16:28.294Z,100.0
2018-05-15T03:17:29.688Z,100.0
2018-05-15T03:18:31.086Z,100.0
2018-05-15T03:19:32.489Z,100.0
2018-05-15T03:20:33.883Z,100.0
2018-05-15T03:21:35.268Z,100.0
2018-05-15T03:22:36.666Z,100.0
2018-05-15T03:23:38.051Z,100.0
2018-05-15T03:24:39.445Z,100.0
2018-05-15T03:25:40.837Z,100.0
2018-05-15T03:26:42.238Z,100.0
2018-05-15T03:27:43.622Z,100.0
2018-05-15T03:28:45.016Z,100.0
2018-05-15T03:29:46.407Z,100.0
2018-05-15T03:30:47.799Z,100.0
2018-05-15T03:31:49.191Z,100.0
2018-05-15T03:32:50.584Z,100.0
2018-05-15T03:33:51.977Z,100.0
2018-05-15T03:34:53.367Z,100.0
2018-05-15T03:35:54.762Z,100.0
2018-05-15T03:36:56.152Z,100.0
2018-05-15T03:37:57.544Z,100.0
2018-05-15T03:38:58.942Z,100.0
2018-05-15T03:40:00.331Z,100.0
2018-05-15T03:41:01.728Z,100.0
2018-05-15T03:42:03.122Z,100.0
2018-05-15T03:43:04.595Z,100.0
2018-05-15T03:44:05.985Z,100.0
2018-05-15T03:45:07.391Z,100.0
2018-05-15T03:46:08.780Z,100.0
2018-05-15T03:47:10.175Z,100.0
2018-05-15T03:48:11.569Z,100.0
2018-05-15T03:49:12.958Z,100.0
2018-05-15T03:50:14.348Z,100.0
2018-05-15T03:51:15.740Z,100.0
2018-05-15T03:52:17.133Z,100.0
2018-05-15T03:53:18.527Z,100.0
2018-05-15T03:54:19.926Z,100.0
2018-05-15T03:55:21.322Z,100.0
2018-05-15T03:56:22.720Z,100.0
2018-05-15T03:57:24.112Z,100.0
2018-05-15T03:58:25.503Z,100.0
2018-05-15T03:59:26.909Z,100.0
2018-05-15T04:00:28.301Z,100.0
2018-05-15T04:01:29.699Z,100.0
2018-05-15T04:02:31.095Z,100.0
2018-05-15T04:03:32.491Z,100.0
2018-05-15T04:04:33.890Z,100.0
2018-05-15T04:05:35.281Z,100.0
2018-05-15T04:06:36.679Z,100.0
2018-05-15T04:07:38.074Z,100.0
2018-05-15T04:08:39.534Z,100.0
2018-05-15T04:09:40.881Z,100.0
2018-05-15T04:10:42.271Z,100.0
2018-05-15T04:11:43.663Z,100.0
2018-05-15T04:12:45.060Z,100.0
2018-05-15T04:13:46.455Z,100.0
2018-05-15T04:14:47.849Z,100.0
2018-05-15T04:15:49.243Z,100.0
2018-05-15T04:16:51.550Z,100.0
2018-05-15T04:17:52.945Z,100.0
2018-05-15T04:18:54.345Z,100.0
2018-05-15T04:19:55.738Z,100.0
2018-05-15T04:20:57.131Z,100.0
2018-05-15T04:21:58.525Z,100.0
2018-05-15T04:22:59.924Z,100.0
2018-05-15T04:24:01.348Z,100.0
2018-05-15T04:25:02.725Z,100.0
2018-05-15T04:26:04.120Z,100.0
2018-05-15T04:27:05.517Z,100.0
2018-05-15T04:28:06.953Z,100.0
2018-05-15T04:29:08.309Z,100.0
2018-05-15T04:30:09.758Z,100.0
2018-05-15T04:31:11.181Z,100.0
2018-05-15T04:32:12.575Z,100.0
2018-05-15T04:33:13.972Z,100.0
2018-05-15T04:34:15.363Z,100.0
2018-05-15T04:35:16.780Z,100.0
2018-05-15T04:36:18.157Z,100.0
2018-05-15T04:37:19.557Z,100.0
2018-05-15T04:38:20.951Z,100.0
2018-05-15T04:39:22.359Z,100.0
2018-05-15T04:40:23.749Z,100.0
2018-05-15T04:41:25.146Z,100.0
2018-05-15T04:42:26.543Z,100.0
2018-05-15T04:43:27.976Z,100.0
2018-05-15T04:44:29.336Z,100.0
2018-05-15T04:45:30.735Z,100.0
2018-05-15T04:46:32.159Z,100.0
2018-05-15T04:47:33.571Z,100.0
2018-05-15T04:48:34.970Z,100.0
2018-05-15T04:49:36.367Z,100.0
2018-05-15T04:50:37.776Z,100.0
2018-05-15T04:51:39.170Z,100.0
2018-05-15T04:52:40.569Z,100.0
2018-05-15T04:53:41.963Z,100.0
2018-05-15T04:54:43.358Z,100.0
2018-05-15T04:55:44.801Z,100.0
2018-05-15T04:56:46.153Z,100.0
2018-05-15T04:57:47.557Z,100.0
2018-05-15T04:58:48.957Z,100.0
2018-05-15T04:59:50.365Z,100.0
2018-05-15T05:00:51.757Z,100.0
2018-05-15T05:01:53.200Z,100.0
2018-05-15T05:02:54.551Z,100.0
2018-05-15T05:03:55.950Z,100.0
2018-05-15T05:04:57.354Z,100.0
2018-05-15T05:05:58.757Z,100.0
2018-05-15T05:07:00.146Z,100.0
2018-05-15T05:08:01.542Z,100.0
2018-05-15T05:09:02.939Z,100.0
2018-05-15T05:10:04.339Z,100.0
2018-05-15T05:11:05.734Z,100.0
2018-05-15T05:12:07.131Z,100.0
2018-05-15T05:13:08.526Z,100.0
2018-05-15T05:14:09.921Z,100.0
2018-05-15T05:15:11.316Z,100.0
2018-05-15T05:16:12.709Z,100.0
2018-05-15T05:17:14.116Z,100.0
2018-05-15T05:18:15.619Z,100.0
2018-05-15T05:19:17.041Z,100.0
2018-05-15T05:20:18.441Z,100.0
2018-05-15T05:21:19.832Z,100.0
2018-05-15T05:22:21.232Z,100.0
2018-05-15T05:23:22.626Z,100.0
2018-05-15T05:24:24.023Z,100.0
2018-05-15T05:25:25.425Z,100.0
2018-05-15T05:26:26.822Z,100.0
2018-05-15T05:27:28.223Z,100.0
2018-05-15T05:28:29.613Z,100.0
2018-05-15T05:29:31.854Z,100.0
2018-05-15T05:30:33.256Z,100.0
2018-05-15T05:31:34.649Z,100.0
2018-05-15T05:32:36.047Z,100.0
2018-05-15T05:33:37.442Z,100.0
2018-05-15T05:34:38.917Z,100.0
2018-05-15T05:35:40.313Z,100.0
2018-05-15T05:36:41.711Z,100.0
2018-05-15T05:37:43.108Z,100.0
2018-05-15T05:38:44.506Z,100.0
2018-05-15T05:39:45.904Z,100.0
2018-05-15T05:40:47.302Z,100.0
2018-05-15T05:41:48.701Z,100.0
2018-05-15T05:42:50.095Z,100.0
2018-05-15T05:43:51.488Z,100.0
2018-05-15T05:44:52.885Z,100.0
2018-05-15T05:45:54.279Z,100.0
2018-05-15T05:46:55.677Z,100.0
2018-05-15T05:47:57.077Z,100.0
2018-05-15T05:48:58.472Z,100.0
2018-05-15T05:49:59.870Z,100.0
2018-05-15T05:51:01.260Z,100.0
2018-05-15T05:52:02.762Z,100.0
2018-05-15T05:53:04.066Z,100.0
2018-05-15T05:54:05.461Z,100.0
2018-05-15T05:55:06.859Z,100.0
2018-05-15T05:56:08.257Z,100.0
2018-05-15T05:57:09.650Z,100.0
2018-05-15T05:58:11.047Z,100.0
2018-05-15T05:59:12.459Z,100.0
2018-05-15T06:00:13.836Z,100.0
2018-05-15T06:01:15.245Z,100.0
2018-05-15T06:02:16.651Z,100.0
2018-05-15T06:03:18.048Z,100.0
2018-05-15T06:04:19.472Z,100.0
2018-05-15T06:05:20.925Z,100.0
2018-05-15T06:06:22.320Z,100.0
2018-05-15T06:07:23.731Z,100.0
2018-05-15T06:08:25.114Z,100.0
2018-05-15T06:09:26.513Z,100.0
2018-05-15T06:10:27.931Z,100.0
2018-05-15T06:11:29.338Z,100.0
2018-05-15T06:12:30.741Z,100.0
2018-05-15T06:13:32.139Z,100.0
2018-05-15T06:14:33.539Z,100.0
2018-05-15T06:15:34.937Z,100.0
2018-05-15T06:16:36.336Z,100.0
2018-05-15T06:17:37.744Z,100.0
2018-05-15T06:18:39.137Z,100.0
2018-05-15T06:19:40.532Z,100.0
2018-05-15T06:20:41.969Z,100.0
2018-05-15T06:21:43.323Z,100.0
2018-05-15T06:22:44.727Z,100.0
2018-05-15T06:23:46.120Z,100.0
2018-05-15T06:24:47.520Z,100.0
2018-05-15T06:25:48.917Z,100.0
2018-05-15T06:26:50.316Z,100.0
2018-05-15T06:27:51.712Z,100.0
2018-05-15T06:28:53.117Z,100.0
2018-05-15T06:29:54.517Z,100.0
2018-05-15T06:30:55.922Z,100.0
2018-05-15T06:31:57.324Z,100.0
2018-05-15T06:32:58.716Z,100.0
2018-05-15T06:34:00.113Z,100.0
2018-05-15T06:35:01.510Z,100.0
2018-05-15T06:36:02.911Z,100.0
2018-05-15T06:37:04.310Z,100.0
2018-05-15T06:38:05.709Z,100.0
2018-05-15T06:39:07.111Z,100.0
2018-05-15T06:40:08.507Z,100.0
2018-05-15T06:41:09.905Z,100.0
2018-05-15T06:42:11.299Z,100.0
2018-05-15T06:43:12.699Z,100.0
2018-05-15T06:44:14.099Z,100.0
2018-05-15T06:45:15.491Z,100.0
2018-05-15T06:46:16.889Z,100.0
2018-05-15T06:47:18.290Z,100.0
2018-05-15T06:48:19.691Z,100.0
2018-05-15T06:49:21.090Z,100.0
2018-05-15T06:50:22.505Z,100.0
2018-05-15T06:51:23.949Z,100.0
2018-05-15T06:52:25.382Z,100.0
2018-05-15T06:53:26.782Z,100.0
2018-05-15T06:54:28.179Z,100.0
2018-05-15T06:55:29.582Z,100.0
2018-05-15T06:56:30.981Z,100.0
2018-05-15T06:57:32.379Z,100.0
2018-05-15T06:58:33.798Z,100.0
2018-05-15T06:59:35.198Z,100.0
2018-05-15T07:00:36.603Z,100.0
2018-05-15T07:01:38.006Z,100.0
2018-05-15T07:02:39.404Z,100.0
2018-05-15T07:03:40.806Z,100.0
2018-05-15T07:04:42.198Z,100.0
2018-05-15T07:05:43.595Z,100.0
2018-05-15T07:06:44.993Z,99.6
2018-05-15T07:07:46.453Z,99.5
2018-05-15T07:08:47.789Z,98.7
2018-05-15T07:09:49.181Z,96.1
2018-05-15T07:10:50.580Z,97.2
2018-05-15T07:11:51.974Z,97.3
2018-05-15T07:12:53.377Z,96.3
2018-05-15T07:13:54.776Z,95.7
2018-05-15T07:14:56.173Z,94.8
2018-05-15T07:15:57.582Z,93.7
2018-05-15T07:16:58.981Z,92.1
2018-05-15T07:18:00.382Z,91.2
2018-05-15T07:19:01.773Z,92.3
2018-05-15T07:20:03.171Z,92.2
2018-05-15T07:21:04.569Z,92.4
2018-05-15T07:22:05.973Z,92.3
2018-05-15T07:23:07.370Z,91.3
2018-05-15T07:24:08.764Z,92.2
2018-05-15T07:25:10.163Z,90.3
2018-05-15T07:26:11.564Z,89.5
2018-05-15T07:27:12.963Z,87.8
2018-05-15T07:28:14.364Z,88.6
2018-05-15T07:29:15.763Z,88.4
2018-05-15T07:30:17.184Z,87.2
2018-05-15T07:31:18.580Z,85.4
2018-05-15T07:32:19.977Z,85.1
2018-05-15T07:33:21.375Z,84.1
2018-05-15T07:34:22.785Z,83.0
2018-05-15T07:35:24.183Z,82.3
2018-05-15T07:36:25.637Z,80.9
2018-05-15T07:37:27.064Z,80.9
2018-05-15T07:38:28.463Z,80.4
2018-05-15T07:39:29.906Z,80.7
2018-05-15T07:40:31.306Z,79.0
2018-05-15T07:41:32.705Z,78.3
2018-05-15T07:42:34.106Z,78.3
2018-05-15T07:43:35.505Z,78.0
2018-05-15T07:44:36.903Z,75.9
2018-05-15T07:45:38.299Z,76.6
2018-05-15T07:46:39.701Z,76.6
2018-05-15T07:47:41.105Z,74.8
2018-05-15T07:48:42.502Z,74.9
2018-05-15T07:49:43.902Z,75.1
2018-05-15T07:50:45.307Z,74.9
2018-05-15T07:51:46.701Z,75.1
2018-05-15T07:52:48.099Z,74.6
2018-05-15T07:53:49.495Z,74.8
2018-05-15T07:54:50.895Z,74.2
2018-05-15T07:55:52.297Z,74.4
2018-05-15T07:56:53.695Z,73.5
2018-05-15T07:57:55.097Z,74.3
2018-05-15T07:58:56.492Z,74.4
2018-05-15T07:59:57.913Z,74.2
2018-05-15T08:00:59.308Z,74.1
2018-05-15T08:02:00.775Z,74.3
2018-05-15T08:03:02.110Z,74.4
2018-05-15T08:04:03.516Z,73.9
2018-05-15T08:05:04.909Z,74.3
2018-05-15T08:06:06.307Z,72.7
2018-05-15T08:07:07.708Z,73.0
2018-05-15T08:08:09.106Z,73.7
2018-05-15T08:09:10.517Z,74.4
2018-05-15T08:10:11.903Z,74.7
2018-05-15T08:11:13.303Z,73.7
2018-05-15T08:12:14.706Z,71.7
2018-05-15T08:13:16.107Z,72.1
2018-05-15T08:14:17.507Z,72.9
2018-05-15T08:15:18.904Z,72.3
2018-05-15T08:16:20.381Z,71.9
2018-05-15T08:17:21.700Z,72.0
2018-05-15T08:18:23.100Z,72.6
2018-05-15T08:19:24.504Z,71.8
2018-05-15T08:20:25.909Z,71.9
2018-05-15T08:21:27.295Z,71.9
2018-05-15T08:22:28.700Z,71.1
2018-05-15T08:23:30.097Z,70.8
2018-05-15T08:24:31.505Z,69.9
2018-05-15T08:25:32.916Z,68.9
2018-05-15T08:26:34.326Z,68.9
2018-05-15T08:27:35.715Z,69.5
2018-05-15T08:28:37.126Z,68.0
2018-05-15T08:29:38.530Z,68.3
2018-05-15T08:30:39.926Z,66.8
2018-05-15T08:31:41.327Z,66.9
2018-05-15T08:32:42.733Z,67.5
2018-05-15T08:33:44.134Z,66.5
2018-05-15T08:34:45.533Z,66.1
2018-05-15T08:35:46.933Z,65.0
2018-05-15T08:36:48.329Z,64.9
2018-05-15T08:37:49.732Z,64.3
2018-05-15T08:38:51.127Z,62.8
2018-05-15T08:39:52.536Z,63.3
2018-05-15T08:40:53.933Z,64.0
2018-05-15T08:41:55.331Z,63.9
2018-05-15T08:42:56.729Z,64.4
2018-05-15T08:43:58.134Z,63.4
2018-05-15T08:44:59.536Z,61.4
2018-05-15T08:46:00.937Z,61.2
2018-05-15T08:47:02.338Z,62.1
2018-05-15T08:48:03.738Z,61.3
2018-05-15T08:49:05.140Z,62.2
2018-05-15T08:50:06.537Z,61.4
2018-05-15T08:51:07.942Z,60.9
2018-05-15T08:52:09.343Z,60.6
2018-05-15T08:53:10.753Z,60.0
2018-05-15T08:54:12.181Z,59.0
2018-05-15T08:55:13.583Z,59.6
2018-05-15T08:56:14.983Z,60.2
2018-05-15T08:57:16.382Z,59.0
2018-05-15T08:58:17.787Z,58.9
2018-05-15T08:59:19.186Z,58.0
2018-05-15T09:00:20.590Z,57.3
2018-05-15T09:01:21.993Z,56.1
2018-05-15T09:02:23.398Z,55.9
2018-05-15T09:03:24.794Z,54.7
2018-05-15T09:04:26.201Z,54.1
2018-05-15T09:05:27.609Z,54.3
2018-05-15T09:06:29.043Z,53.3
2018-05-15T09:07:30.512Z,54.5
2018-05-15T09:08:31.913Z,54.9
2018-05-15T09:09:33.311Z,54.3
2018-05-15T09:10:34.711Z,53.9
2018-05-15T09:11:36.110Z,52.9
2018-05-15T09:12:37.529Z,53.8
2018-05-15T09:13:38.904Z,52.3
2018-05-15T09:14:40.307Z,51.0
2018-05-15T09:15:41.709Z,47.8
2018-05-15T09:16:43.116Z,46.3
2018-05-15T09:17:44.513Z,46.8
2018-05-15T09:18:45.920Z,45.9
2018-05-15T09:19:47.322Z,46.1
2018-05-15T09:20:48.721Z,46.4
2018-05-15T09:21:50.128Z,47.1
2018-05-15T09:22:51.533Z,45.2
2018-05-15T09:23:52.933Z,43.6
2018-05-15T09:24:54.333Z,42.4
2018-05-15T09:25:55.741Z,42.7
2018-05-15T09:26:57.144Z,44.2
2018-05-15T09:27:58.549Z,43.4
2018-05-15T09:28:59.959Z,43.2
2018-05-15T09:30:01.361Z,43.4
2018-05-15T09:31:02.788Z,41.7
2018-05-15T09:32:04.190Z,41.8
2018-05-15T09:33:05.589Z,41.9
2018-05-15T09:34:06.989Z,42.4
2018-05-15T09:35:08.391Z,41.2
2018-05-15T09:36:09.800Z,43.5
2018-05-15T09:37:11.200Z,43.3
2018-05-15T09:38:12.651Z,41.8
2018-05-15T09:39:14.057Z,43.5
2018-05-15T09:40:15.460Z,44.0
2018-05-15T09:41:16.859Z,43.7
2018-05-15T09:42:18.258Z,43.8
2018-05-15T09:43:19.661Z,44.5
2018-05-15T09:44:21.065Z,44.9
2018-05-15T09:45:22.469Z,44.8
2018-05-15T09:46:23.874Z,45.0
2018-05-15T09:47:25.272Z,45.3
2018-05-15T09:48:26.672Z,42.5
2018-05-15T09:49:28.073Z,41.4
2018-05-15T09:50:29.479Z,41.3
2018-05-15T09:51:30.969Z,40.8
2018-05-15T09:52:32.385Z,41.9
2018-05-15T09:53:33.783Z,42.1
2018-05-15T09:54:35.185Z,42.0
2018-05-15T09:55:36.585Z,40.7
2018-05-15T09:56:38.006Z,40.4
2018-05-15T09:57:39.407Z,40.6
2018-05-15T09:58:40.812Z,40.9
2018-05-15T09:59:42.223Z,39.1
2018-05-15T10:00:43.615Z,40.6
2018-05-15T10:01:45.016Z,41.2
2018-05-15T10:02:46.417Z,40.7
2018-05-15T10:03:47.825Z,41.0
2018-05-15T10:04:49.228Z,42.3
2018-05-15T10:05:50.626Z,39.4
2018-05-15T10:06:52.036Z,39.5
2018-05-15T10:07:53.486Z,38.1
2018-05-15T10:08:54.845Z,40.1
2018-05-15T10:09:56.245Z,38.8
2018-05-15T10:10:57.648Z,39.5
2018-05-15T10:11:59.054Z,37.4
2018-05-15T10:13:00.455Z,41.0
2018-05-15T10:14:01.860Z,40.5
2018-05-15T10:15:03.265Z,40.6
2018-05-15T10:16:04.669Z,39.2
2018-05-15T10:17:06.079Z,38.3
2018-05-15T10:18:07.481Z,38.5
2018-05-15T10:19:08.885Z,38.5
2018-05-15T10:20:10.289Z,39.6
2018-05-15T10:21:11.701Z,38.7
2018-05-15T10:22:13.103Z,37.6
2018-05-15T10:23:14.505Z,34.7
2018-05-15T10:24:15.908Z,35.7
2018-05-15T10:25:17.315Z,37.9
2018-05-15T10:26:18.730Z,37.1
2018-05-15T10:27:20.126Z,35.6
2018-05-15T10:28:21.532Z,35.0
2018-05-15T10:29:22.935Z,34.2
2018-05-15T10:30:24.336Z,34.8
2018-05-15T10:31:25.739Z,35.1
2018-05-15T10:32:27.148Z,34.0
2018-05-15T10:33:28.545Z,34.9
2018-05-15T10:34:29.953Z,36.7
2018-05-15T10:35:31.360Z,37.2
2018-05-15T10:36:32.824Z,35.2
2018-05-15T10:37:34.299Z,34.8
2018-05-15T10:38:35.704Z,35.2
2018-05-15T10:39:37.125Z,35.2
2018-05-15T10:40:38.526Z,34.6
2018-05-15T10:41:39.932Z,37.4
2018-05-15T10:42:41.337Z,36.7
2018-05-15T10:43:42.737Z,36.9
2018-05-15T10:44:44.141Z,37.0
2018-05-15T10:45:45.555Z,36.6
2018-05-15T10:46:46.956Z,34.0
2018-05-15T10:47:48.361Z,33.8
2018-05-15T10:48:49.767Z,34.0
2018-05-15T10:49:51.171Z,33.2
2018-05-15T10:50:52.665Z,32.6
2018-05-15T10:51:53.980Z,31.7
2018-05-15T10:52:55.384Z,30.7
2018-05-15T10:53:56.790Z,31.9
2018-05-15T10:54:58.213Z,31.0
2018-05-15T10:55:59.619Z,32.1
2018-05-15T10:57:01.024Z,33.5
2018-05-15T10:58:02.429Z,34.1
2018-05-15T10:59:03.836Z,32.9
2018-05-15T11:00:05.238Z,32.0
2018-05-15T11:01:06.643Z,30.5
2018-05-15T11:02:08.060Z,31.4
2018-05-15T11:03:09.468Z,30.4
2018-05-15T11:04:10.875Z,32.1
2018-05-15T11:05:12.302Z,32.8
2018-05-15T11:06:13.714Z,29.4
2018-05-15T11:07:15.113Z,30.6
2018-05-15T11:08:16.524Z,29.4
2018-05-15T11:09:17.941Z,30.1
2018-05-15T11:10:19.336Z,28.1
2018-05-15T11:11:20.746Z,26.8
2018-05-15T11:12:22.151Z,29.1
2018-05-15T11:13:23.558Z,29.4
2018-05-15T11:14:24.968Z,29.4
2018-05-15T11:15:26.374Z,29.5
2018-05-15T11:16:27.789Z,30.1
2018-05-15T11:17:29.205Z,29.4
2018-05-15T11:18:30.616Z,28.9
2018-05-15T11:19:32.043Z,28.9
2018-05-15T11:20:33.447Z,29.0
2018-05-15T11:21:34.856Z,29.5
2018-05-15T11:22:36.395Z,27.5
2018-05-15T11:23:37.804Z,27.3
2018-05-15T11:24:39.292Z,29.4
2018-05-15T11:25:40.628Z,28.7
2018-05-15T11:26:42.038Z,28.6
2018-05-15T11:27:43.460Z,28.8
2018-05-15T11:28:44.932Z,27.5
2018-05-15T11:29:46.330Z,26.5
2018-05-15T11:30:47.824Z,27.0
2018-05-15T11:31:49.227Z,25.0
2018-05-15T11:32:50.631Z,26.0
2018-05-15T11:33:52.037Z,26.5
2018-05-15T11:34:53.443Z,27.0
2018-05-15T11:35:54.870Z,27.8
2018-05-15T11:36:56.254Z,28.4
2018-05-15T11:37:57.665Z,28.4
2018-05-15T11:38:59.070Z,27.4
2018-05-15T11:40:00.481Z,28.4
2018-05-15T11:41:01.883Z,27.9
2018-05-15T11:42:03.290Z,29.9
2018-05-15T11:43:04.695Z,28.9
2018-05-15T11:44:06.098Z,29.2
2018-05-15T11:45:07.509Z,29.0
2018-05-15T11:46:08.915Z,31.0
2018-05-15T11:47:10.322Z,31.8
2018-05-15T11:48:12.054Z,33.6
2018-05-15T11:49:13.710Z,34.1
2018-05-15T11:50:15.238Z,33.2
2018-05-15T11:51:16.593Z,34.7
2018-05-15T11:52:18.059Z,35.6
2018-05-15T11:53:18.979Z,35.0
2018-05-15T11:54:20.158Z,34.3
2018-05-15T11:55:21.561Z,35.2
2018-05-15T11:56:23.055Z,35.5
2018-05-15T11:57:24.373Z,34.0
2018-05-15T11:58:25.780Z,33.6
2018-05-15T11:59:27.189Z,34.1
2018-05-15T12:00:28.597Z,33.9
2018-05-15T12:01:30.005Z,32.9
2018-05-15T12:02:31.471Z,33.0
2018-05-15T12:03:32.810Z,33.4
2018-05-15T12:04:34.214Z,34.1
2018-05-15T12:05:35.620Z,34.6
2018-05-15T12:06:37.047Z,34.8
2018-05-15T12:07:38.498Z,34.4
2018-05-15T12:08:39.933Z,34.7
2018-05-15T12:09:41.333Z,33.7
2018-05-15T12:10:42.828Z,34.3
2018-05-15T12:11:44.138Z,35.4
2018-05-15T12:12:45.552Z,35.2
2018-05-15T12:13:46.951Z,35.4
2018-05-15T12:14:48.356Z,35.3
2018-05-15T12:15:49.760Z,34.7
2018-05-15T12:16:51.170Z,33.4
2018-05-15T12:17:52.565Z,32.4
2018-05-15T12:18:53.973Z,32.6
2018-05-15T12:19:55.376Z,32.0
2018-05-15T12:20:56.782Z,31.5
2018-05-15T12:21:58.188Z,29.3
2018-05-15T12:22:59.595Z,30.1
2018-05-15T12:24:00.995Z,30.3
2018-05-15T12:25:02.402Z,31.7
2018-05-15T12:26:03.799Z,30.9
2018-05-15T12:27:05.213Z,30.8
2018-05-15T12:28:06.624Z,31.3
2018-05-15T12:29:08.019Z,29.1
2018-05-15T12:30:09.428Z,31.2
2018-05-15T12:31:10.830Z,30.6
2018-05-15T12:32:12.238Z,32.0
2018-05-15T12:33:13.644Z,31.4
2018-05-15T12:34:15.045Z,29.1
2018-05-15T12:35:16.448Z,29.9
2018-05-15T12:36:17.880Z,31.6
2018-05-15T12:37:19.285Z,30.2
2018-05-15T12:38:20.682Z,30.5
2018-05-15T12:39:22.086Z,30.7
2018-05-15T12:40:23.493Z,32.8
2018-05-15T12:41:24.981Z,32.9
2018-05-15T12:42:26.302Z,33.1
2018-05-15T12:43:27.716Z,35.6
2018-05-15T12:44:29.122Z,36.3
2018-05-15T12:45:30.527Z,34.5
2018-05-15T12:46:31.933Z,34.6
2018-05-15T12:47:33.333Z,34.4
2018-05-15T12:48:34.769Z,33.4
2018-05-15T12:49:36.144Z,32.6
2018-05-15T12:50:37.551Z,31.7
2018-05-15T12:51:38.956Z,30.6
2018-05-15T12:52:40.360Z,29.9
2018-05-15T12:53:41.877Z,29.4
2018-05-15T12:54:43.315Z,28.4
2018-05-15T12:55:44.729Z,30.6
2018-05-15T12:56:46.131Z,31.4
2018-05-15T12:57:47.543Z,32.8
2018-05-15T12:58:48.951Z,32.8
2018-05-15T12:59:50.356Z,31.3
2018-05-15T13:00:51.759Z,31.8
2018-05-15T13:01:53.162Z,34.1
2018-05-15T13:02:54.566Z,34.4
2018-05-15T13:03:55.968Z,33.5
2018-05-15T13:04:57.376Z,34.8
2018-05-15T13:05:58.779Z,34.6
2018-05-15T13:07:00.181Z,33.9
2018-05-15T13:08:01.600Z,33.6
2018-05-15T13:09:02.991Z,32.0
2018-05-15T13:10:04.400Z,34.0
2018-05-15T13:11:05.801Z,34.2
2018-05-15T13:12:07.205Z,33.5
2018-05-15T13:13:08.611Z,33.8
2018-05-15T13:14:10.011Z,35.5
2018-05-15T13:15:11.414Z,34.9
2018-05-15T13:16:12.821Z,34.7
2018-05-15T13:17:14.287Z,33.9
2018-05-15T13:18:15.631Z,33.4
2018-05-15T13:19:17.066Z,32.7
2018-05-15T13:20:18.473Z,31.7
2018-05-15T13:21:19.878Z,31.0
2018-05-15T13:22:21.279Z,28.1